Hauptseite
METAR-TAF:

METAR-TAF

Flughäfen :

Taloyoak, Nunavut, Kanada

Breite: 69-33N, Länge: 093-35W, Höhe: 28 m

Beobachtung

Neuester Wetterbericht von vor 17 Minuten, um 12:00 UTC
Wind 4 kt aus Süd
Temperatur -36°C
Luftfeuchtigkeit 66%
Luftdruck 1012 hPa
Sichtweite: 24.1 km
Himmel klar
Eisnadeln

METAR: CYYH 191200Z 18004KT 15SM IC SKC M36/M40 A2988 RMK FROIN SLP127

Zeit: 05:17 (12:17 UTC)

Prognose

Neuester Wetterbericht von vor 39 Minuten, um 11:38 UTC
Gültige Prognose vom 19 um 12 UTC bis 19 um 24 UTC
Wind 3 kt aus unterschiedlichen Richtungen
Sichtweite: 10 km
Himmel klar
Eisnadeln

TAF: CYYH 191138Z 1912/1924 VRB03KT P6SM IC SKC RMK NXT FCST BY 191800Z

Wetterbeobachtungen und Prognosen von mehr als 4000 Flughäfen (METAR und TAF Bericht).

Die verfügbaren Stationen werden durch gelbe und rote Markierungen auf der Karte dargestellt.

Führen Sie die Maus auf sie, um den Namen der Station zu sehen.

Darauf klicken, um die Beobachtung von Wetterbeobachtungen und Prognosen zu sehen.

Um die Karte zu ändern : klicken Sie auf den grünen Tasten mit einem schwarzen Kreuz Zum Vergrößern, auf den grünen Button mit einem Gedankenstrich zu verkleinern, oder auf die grünen Pfeile für benachbarte Karten.


METAR-TAF: